createdAt,value
2022-08-08T00:00:56.684Z,4.72
2022-08-08T00:02:31.316Z,3.60
2022-08-08T00:05:09.592Z,3.38
2022-08-08T00:07:41.485Z,4.32
2022-08-08T00:10:13.650Z,3.45
2022-08-08T00:12:48.540Z,3.83
2022-08-08T00:15:56.488Z,3.58
2022-08-08T00:18:22.383Z,4.43
2022-08-08T00:20:52.244Z,5.55
2022-08-08T00:23:28.339Z,3.55
2022-08-08T00:26:13.081Z,3.53
2022-08-08T00:28:44.182Z,5.25
2022-08-08T00:32:22.365Z,5.15
2022-08-08T00:34:31.458Z,4.82
2022-08-08T00:37:16.309Z,3.80
2022-08-08T00:41:12.666Z,3.88
2022-08-08T00:42:56.028Z,3.80
2022-08-08T00:45:39.369Z,3.53
2022-08-08T00:48:29.518Z,3.67
2022-08-08T00:51:22.870Z,3.83
2022-08-08T00:54:28.697Z,4.55
2022-08-08T00:57:23.471Z,5.60
2022-08-08T01:00:12.113Z,5.55
2022-08-08T01:03:58.026Z,6.63
2022-08-08T01:06:16.198Z,4.93
2022-08-08T01:09:36.488Z,5.20
2022-08-08T01:12:04.824Z,3.53
2022-08-08T01:15:00.281Z,5.20
2022-08-08T01:17:53.307Z,5.03
2022-08-08T01:20:58.373Z,4.05
2022-08-08T01:24:02.993Z,6.05
2022-08-08T01:26:40.366Z,4.65
2022-08-08T01:29:35.637Z,3.83
2022-08-08T01:32:32.157Z,4.15
2022-08-08T01:35:18.361Z,4.20
2022-08-08T01:38:09.858Z,3.78
2022-08-08T01:40:41.417Z,4.55
2022-08-08T01:43:19.566Z,4.97
2022-08-08T01:45:54.426Z,4.70
2022-08-08T01:48:31.714Z,4.93
2022-08-08T01:51:30.756Z,4.03
2022-08-08T01:55:16.630Z,3.97
2022-08-08T01:57:05.994Z,5.10
2022-08-08T02:00:01.671Z,5.80
2022-08-08T02:02:41.659Z,5.57
2022-08-08T02:05:19.018Z,5.55
2022-08-08T02:07:59.721Z,4.57
2022-08-08T02:10:45.045Z,4.15
2022-08-08T02:13:54.259Z,4.32
2022-08-08T02:16:20.778Z,6.13
2022-08-08T02:18:58.700Z,4.60
2022-08-08T02:21:48.197Z,6.18
2022-08-08T02:24:22.870Z,6.55
2022-08-08T02:27:00.836Z,4.28
2022-08-08T02:29:47.002Z,5.78
2022-08-08T02:32:30.089Z,6.68
2022-08-08T02:35:12.029Z,4.85
2022-08-08T02:37:51.371Z,5.20
2022-08-08T02:40:32.017Z,4.70
2022-08-08T02:44:43.172Z,6.18
2022-08-08T02:46:14.356Z,6.30
2022-08-08T02:49:03.744Z,4.97
2022-08-08T02:51:56.544Z,4.85
2022-08-08T02:54:45.925Z,5.28
2022-08-08T02:57:40.524Z,4.93
2022-08-08T03:00:31.394Z,5.10
2022-08-08T03:05:00.469Z,4.80
2022-08-08T03:06:35.078Z,4.53
2022-08-08T03:09:37.002Z,5.90
2022-08-08T03:12:35.876Z,6.05
2022-08-08T03:16:03.865Z,7.03
2022-08-08T03:18:31.079Z,6.50
2022-08-08T03:21:01.609Z,5.63
2022-08-08T03:23:39.813Z,6.00
2022-08-08T03:26:30.951Z,7.53
2022-08-08T03:29:03.598Z,5.28
2022-08-08T03:32:05.957Z,5.70
2022-08-08T03:34:39.777Z,6.18
2022-08-08T03:37:20.061Z,8.38
2022-08-08T03:40:03.976Z,8.77
2022-08-08T03:42:32.627Z,5.53
2022-08-08T03:46:02.759Z,5.93
2022-08-08T03:47:58.754Z,7.60
2022-08-08T03:50:27.678Z,7.10
2022-08-08T03:52:57.577Z,6.45
2022-08-08T03:55:57.428Z,6.65
2022-08-08T03:58:36.384Z,7.45
2022-08-08T04:01:25.948Z,5.72
2022-08-08T04:03:58.214Z,5.95
2022-08-08T04:06:29.814Z,7.40
2022-08-08T04:09:10.832Z,6.38
2022-08-08T04:11:48.527Z,6.82
2022-08-08T04:14:33.293Z,7.20
2022-08-08T04:17:04.361Z,6.85
2022-08-08T04:19:36.753Z,7.20
2022-08-08T04:22:05.593Z,6.18
2022-08-08T04:24:35.140Z,6.10
2022-08-08T04:27:19.409Z,7.57
2022-08-08T04:30:00.997Z,6.57
2022-08-08T04:32:48.256Z,9.52
2022-08-08T04:35:22.325Z,8.63
2022-08-08T04:37:51.116Z,8.20
2022-08-08T04:40:24.179Z,7.53
2022-08-08T04:42:58.065Z,7.35
2022-08-08T04:45:30.195Z,7.25
2022-08-08T04:48:00.506Z,7.07
2022-08-08T04:50:37.615Z,7.97
2022-08-08T04:53:51.981Z,8.18
2022-08-08T04:55:57.042Z,10.18
2022-08-08T04:58:27.145Z,8.07
2022-08-08T05:00:55.577Z,8.68
2022-08-08T05:04:09.078Z,8.68
2022-08-08T05:06:25.430Z,7.00
2022-08-08T05:09:02.726Z,7.55
2022-08-08T05:11:38.927Z,10.00
2022-08-08T05:14:12.409Z,8.05
2022-08-08T05:16:51.031Z,7.75
2022-08-08T05:20:06.183Z,8.82
2022-08-08T05:22:10.744Z,8.05
2022-08-08T05:24:40.288Z,9.60
2022-08-08T05:27:09.162Z,9.98
2022-08-08T05:29:40.792Z,8.15
2022-08-08T05:32:13.063Z,9.73
2022-08-08T05:34:43.746Z,10.25
2022-08-08T05:37:17.326Z,9.45
2022-08-08T05:39:51.018Z,8.75
2022-08-08T05:42:25.614Z,10.15
2022-08-08T05:45:00.366Z,12.38
2022-08-08T05:47:41.532Z,10.18
2022-08-08T05:50:22.250Z,9.82
2022-08-08T05:52:51.210Z,9.40
2022-08-08T05:55:19.636Z,7.93
2022-08-08T05:58:04.011Z,12.25
2022-08-08T06:00:35.631Z,11.30
2022-08-08T06:03:24.746Z,10.65
2022-08-08T06:05:56.711Z,13.13
2022-08-08T06:08:34.731Z,12.32
2022-08-08T06:11:05.104Z,8.43
2022-08-08T06:13:35.732Z,10.45
2022-08-08T06:16:14.086Z,14.27
2022-08-08T06:18:43.133Z,11.38
2022-08-08T06:21:32.737Z,10.48
2022-08-08T06:24:02.222Z,10.38
2022-08-08T06:26:35.908Z,9.85
2022-08-08T06:29:26.355Z,9.40
2022-08-08T06:32:15.200Z,12.30
2022-08-08T06:34:56.450Z,8.68
2022-08-08T06:37:39.608Z,11.20
2022-08-08T06:40:10.545Z,9.27
2022-08-08T06:42:48.467Z,9.77
2022-08-08T06:45:17.737Z,10.48
2022-08-08T06:47:52.216Z,10.93
2022-08-08T06:50:38.180Z,10.63
2022-08-08T06:53:09.811Z,8.70
2022-08-08T06:55:47.300Z,8.50
2022-08-08T06:58:33.250Z,8.43
2022-08-08T07:01:52.481Z,9.98
2022-08-08T07:04:36.856Z,6.53
2022-08-08T07:06:45.500Z,9.93
2022-08-08T07:09:17.940Z,12.75
2022-08-08T07:11:51.137Z,7.68
2022-08-08T07:14:20.903Z,8.88
2022-08-08T07:16:54.154Z,8.73
2022-08-08T07:19:32.777Z,9.65
2022-08-08T07:22:11.977Z,8.10
2022-08-08T07:24:55.215Z,8.82
2022-08-08T07:27:35.265Z,9.05
2022-08-08T07:30:18.117Z,9.38
2022-08-08T07:32:51.687Z,9.27
2022-08-08T07:35:23.636Z,7.88
2022-08-08T07:38:04.971Z,11.20
2022-08-08T07:40:40.819Z,7.30
2022-08-08T07:43:12.525Z,7.88
2022-08-08T07:46:05.218Z,9.13
2022-08-08T07:48:31.840Z,10.98
2022-08-08T07:51:04.412Z,9.65
2022-08-08T07:54:00.707Z,10.18
2022-08-08T07:56:36.808Z,9.90
2022-08-08T07:59:10.444Z,8.18
2022-08-08T08:02:34.862Z,10.00
2022-08-08T08:04:35.865Z,11.52
2022-08-08T08:07:11.010Z,10.05
2022-08-08T08:09:42.342Z,9.38
2022-08-08T08:12:35.336Z,7.60
2022-08-08T08:15:05.103Z,9.07
2022-08-08T08:17:48.246Z,7.13
2022-08-08T08:20:20.462Z,9.57
2022-08-08T08:22:50.575Z,11.50
2022-08-08T08:25:40.926Z,6.68
2022-08-08T08:28:09.519Z,6.60
2022-08-08T08:30:39.039Z,7.60
2022-08-08T08:33:11.210Z,6.40
2022-08-08T08:36:18.883Z,6.75
2022-08-08T08:38:33.808Z,6.60
2022-08-08T08:41:06.030Z,7.07
2022-08-08T08:43:35.646Z,7.85
2022-08-08T08:46:11.680Z,5.03
2022-08-08T08:48:49.694Z,6.00
2022-08-08T08:51:18.858Z,8.65
2022-08-08T08:53:59.211Z,5.28
2022-08-08T08:56:29.682Z,9.13
2022-08-08T08:58:59.000Z,6.93
2022-08-08T09:01:32.971Z,6.20
2022-08-08T09:04:02.541Z,5.65
2022-08-08T09:06:34.628Z,8.18
2022-08-08T09:09:07.491Z,7.00
2022-08-08T09:12:02.013Z,8.30
2022-08-08T09:14:42.507Z,8.82
2022-08-08T09:17:17.423Z,5.78
2022-08-08T09:21:58.841Z,6.88
2022-08-08T09:22:39.457Z,7.57
2022-08-08T09:25:10.720Z,6.18
2022-08-08T09:27:55.547Z,6.00
2022-08-08T09:30:27.926Z,5.75
2022-08-08T09:33:11.884Z,4.78
2022-08-08T09:35:49.036Z,4.70
2022-08-08T09:38:24.337Z,6.78
2022-08-08T09:40:58.993Z,5.32
2022-08-08T09:44:05.649Z,9.40
2022-08-08T09:46:30.753Z,8.40
2022-08-08T09:49:18.544Z,7.88
2022-08-08T09:52:06.976Z,4.22
2022-08-08T09:54:38.443Z,5.82
2022-08-08T09:57:17.027Z,6.72
2022-08-08T10:00:01.873Z,4.90
2022-08-08T10:02:36.532Z,5.75
2022-08-08T10:05:14.768Z,9.45
2022-08-08T10:10:30.344Z,4.28
2022-08-08T10:13:14.355Z,5.22
2022-08-08T10:15:59.200Z,5.40
2022-08-08T10:18:30.920Z,6.35
2022-08-08T10:21:03.432Z,6.43
2022-08-08T10:23:48.109Z,9.63
2022-08-08T10:26:40.509Z,8.00
2022-08-08T10:29:23.077Z,6.72
2022-08-08T10:32:27.673Z,7.32
2022-08-08T10:35:01.345Z,5.85
2022-08-08T10:37:31.660Z,10.60
2022-08-08T10:40:07.195Z,6.30
2022-08-08T10:42:38.161Z,6.07
2022-08-08T10:45:16.092Z,7.55
2022-08-08T10:47:48.691Z,5.68
2022-08-08T10:50:23.760Z,6.75
2022-08-08T10:52:52.412Z,8.52
2022-08-08T10:55:39.621Z,5.18
2022-08-08T10:58:12.321Z,6.20
2022-08-08T11:00:52.731Z,4.15
2022-08-08T11:04:00.568Z,4.88
2022-08-08T11:06:31.122Z,6.15
2022-08-08T11:09:03.573Z,5.57
2022-08-08T11:12:05.287Z,4.47
2022-08-08T11:14:34.737Z,8.63
2022-08-08T11:17:05.226Z,7.57
2022-08-08T11:19:35.633Z,6.55
2022-08-08T11:22:04.880Z,5.15
2022-08-08T11:24:36.126Z,6.40
2022-08-08T11:27:10.794Z,8.88
2022-08-08T11:30:20.084Z,4.65
2022-08-08T11:32:40.341Z,6.38
2022-08-08T11:35:27.352Z,5.28
2022-08-08T11:38:37.074Z,5.65
2022-08-08T11:40:52.697Z,6.05
2022-08-08T11:43:24.364Z,5.80
2022-08-08T11:46:13.428Z,5.30
2022-08-08T11:48:44.876Z,7.20
2022-08-08T11:51:30.658Z,6.00
2022-08-08T11:54:04.537Z,4.57
2022-08-08T11:56:34.846Z,3.47
2022-08-08T11:59:10.397Z,4.00
2022-08-08T12:01:40.793Z,4.55
2022-08-08T12:04:11.220Z,6.28
2022-08-08T12:06:40.644Z,5.32
2022-08-08T12:09:17.232Z,5.47
2022-08-08T12:11:49.520Z,10.23
2022-08-08T12:14:24.080Z,8.00
2022-08-08T12:16:59.249Z,8.65
2022-08-08T12:19:31.497Z,4.85
2022-08-08T12:22:21.074Z,5.68
2022-08-08T12:24:53.878Z,6.40
2022-08-08T12:27:26.478Z,4.97
2022-08-08T12:29:56.852Z,3.88
2022-08-08T12:32:26.725Z,5.72
2022-08-08T12:35:12.995Z,3.95
2022-08-08T12:37:48.102Z,4.68
2022-08-08T12:40:38.397Z,7.28
2022-08-08T12:44:14.783Z,4.75
2022-08-08T12:47:02.860Z,4.70
2022-08-08T12:49:43.699Z,3.85
2022-08-08T12:52:28.732Z,4.68
2022-08-08T12:55:09.411Z,3.40
2022-08-08T12:57:56.682Z,3.60
2022-08-08T13:00:33.885Z,3.28
2022-08-08T13:03:07.693Z,4.07
2022-08-08T13:06:03.481Z,5.18
2022-08-08T13:08:33.265Z,4.07
2022-08-08T13:11:08.622Z,5.57
2022-08-08T13:13:39.149Z,4.22
2022-08-08T13:16:21.717Z,4.18
2022-08-08T13:18:58.379Z,5.30
2022-08-08T13:21:49.205Z,4.10
2022-08-08T13:24:39.494Z,4.78
2022-08-08T13:27:11.844Z,4.00
2022-08-08T13:29:50.365Z,3.30
2022-08-08T13:32:27.560Z,4.28
2022-08-08T13:34:57.865Z,5.93
2022-08-08T13:38:05.862Z,3.38
2022-08-08T13:40:17.709Z,6.75
2022-08-08T13:42:47.097Z,5.72
2022-08-08T13:45:16.146Z,4.13
2022-08-08T13:47:58.556Z,3.33
2022-08-08T13:50:39.258Z,3.08
2022-08-08T13:53:26.381Z,3.10
2022-08-08T13:56:00.568Z,4.60
2022-08-08T13:58:29.432Z,2.88
2022-08-08T14:00:58.164Z,4.53
2022-08-08T14:03:53.793Z,2.70
2022-08-08T14:06:32.321Z,3.45
2022-08-08T14:09:25.441Z,5.43
2022-08-08T14:11:50.596Z,3.35
2022-08-08T14:14:21.256Z,3.40
2022-08-08T14:16:55.346Z,2.72
2022-08-08T14:19:58.058Z,3.30
2022-08-08T14:22:23.465Z,2.88
2022-08-08T14:24:54.726Z,5.00
2022-08-08T14:27:29.009Z,3.13
2022-08-08T14:30:01.709Z,2.53
2022-08-08T14:32:30.870Z,2.53
2022-08-08T14:35:04.585Z,3.67
2022-08-08T14:37:43.144Z,5.97
2022-08-08T14:40:23.883Z,3.17
2022-08-08T14:42:55.255Z,3.25
2022-08-08T14:45:33.694Z,3.47
2022-08-08T14:48:16.230Z,2.95
2022-08-08T14:50:47.992Z,2.70
2022-08-08T14:53:16.431Z,2.45
2022-08-08T14:55:45.031Z,2.70
2022-08-08T14:58:20.018Z,3.10
2022-08-08T15:00:50.174Z,4.25
2022-08-08T15:03:19.056Z,2.55
2022-08-08T15:05:53.783Z,3.97
2022-08-08T15:08:34.522Z,2.20
2022-08-08T15:11:06.802Z,2.45
2022-08-08T15:13:41.121Z,2.75
2022-08-08T15:16:23.671Z,4.30
2022-08-08T15:18:52.315Z,2.10
2022-08-08T15:21:22.169Z,3.63
2022-08-08T15:23:51.902Z,9.73
2022-08-08T15:26:20.917Z,3.75
2022-08-08T15:28:54.495Z,2.20
2022-08-08T15:32:03.140Z,3.30
2022-08-08T15:34:30.087Z,2.35
2022-08-08T15:37:03.273Z,2.20
2022-08-08T15:39:38.207Z,3.60
2022-08-08T15:42:10.499Z,2.05
2022-08-08T15:44:42.404Z,2.97
2022-08-08T15:47:16.225Z,2.88
2022-08-08T15:49:48.671Z,3.45
2022-08-08T15:52:28.378Z,2.83
2022-08-08T15:54:57.234Z,2.13
2022-08-08T15:57:26.439Z,2.80
2022-08-08T16:00:06.435Z,2.92
2022-08-08T16:02:44.565Z,3.67
2022-08-08T16:05:20.118Z,3.13
2022-08-08T16:07:52.843Z,2.63
2022-08-08T16:13:10.988Z,3.88
2022-08-08T16:13:33.543Z,2.30
2022-08-08T16:16:17.268Z,1.92
2022-08-08T16:18:53.333Z,2.65
2022-08-08T16:21:27.581Z,2.10
2022-08-08T16:23:58.113Z,3.58
2022-08-08T16:26:34.215Z,2.95
2022-08-08T16:29:07.755Z,2.42
2022-08-08T16:31:40.238Z,3.53
2022-08-08T16:34:11.171Z,3.45
2022-08-08T16:36:40.633Z,5.35
2022-08-08T16:39:28.144Z,3.08
2022-08-08T16:42:01.501Z,2.40
2022-08-08T16:44:34.305Z,6.28
2022-08-08T16:47:21.960Z,2.72
2022-08-08T16:50:14.290Z,2.50
2022-08-08T16:55:22.448Z,3.40
2022-08-08T16:55:55.033Z,2.92
2022-08-08T16:58:25.492Z,2.13
2022-08-08T17:00:54.606Z,4.57
2022-08-08T17:03:25.416Z,3.50
2022-08-08T17:06:35.712Z,5.07
2022-08-08T17:09:00.703Z,3.83
2022-08-08T17:11:38.902Z,3.78
2022-08-08T17:14:19.013Z,2.22
2022-08-08T17:16:57.427Z,2.80
2022-08-08T17:19:27.193Z,2.53
2022-08-08T17:21:55.742Z,3.60
2022-08-08T17:24:27.724Z,2.88
2022-08-08T17:26:58.857Z,2.70
2022-08-08T17:29:28.524Z,2.55
2022-08-08T17:32:02.607Z,4.35
2022-08-08T17:34:35.593Z,2.75
2022-08-08T17:37:16.236Z,5.88
2022-08-08T17:40:12.447Z,3.15
2022-08-08T17:42:37.345Z,5.60
2022-08-08T17:45:06.446Z,2.47
2022-08-08T17:47:40.469Z,4.10
2022-08-08T17:50:10.137Z,4.88
2022-08-08T17:52:43.082Z,3.00
2022-08-08T17:56:07.215Z,4.50
2022-08-08T17:58:02.623Z,5.68
2022-08-08T18:02:52.561Z,3.13
2022-08-08T18:05:48.369Z,2.97
2022-08-08T18:08:25.169Z,2.58
2022-08-08T18:11:08.403Z,3.33
2022-08-08T18:13:41.493Z,3.65
2022-08-08T18:16:10.972Z,5.32
2022-08-08T18:18:42.963Z,2.35
2022-08-08T18:21:34.744Z,2.95
2022-08-08T18:24:11.736Z,4.38
2022-08-08T18:26:53.675Z,3.05
2022-08-08T18:29:26.205Z,3.60
2022-08-08T18:31:59.159Z,3.15
2022-08-08T18:34:29.621Z,4.60
2022-08-08T18:37:04.804Z,2.85
2022-08-08T18:39:36.403Z,4.50
2022-08-08T18:42:13.062Z,3.20
2022-08-08T18:44:55.468Z,2.92
2022-08-08T18:47:27.098Z,4.30
2022-08-08T18:50:00.395Z,3.03
2022-08-08T18:52:33.819Z,2.78
2022-08-08T18:55:09.562Z,3.63
2022-08-08T18:57:41.186Z,2.58
2022-08-08T19:00:15.927Z,1.92
2022-08-08T19:02:55.378Z,3.53
2022-08-08T19:05:32.227Z,2.78
2022-08-08T19:08:24.358Z,3.33
2022-08-08T19:10:55.480Z,4.05
2022-08-08T19:13:24.501Z,2.33
2022-08-08T19:15:55.779Z,3.22
2022-08-08T19:18:30.763Z,2.50
2022-08-08T19:21:03.453Z,2.97
2022-08-08T19:23:51.796Z,4.13
2022-08-08T19:26:30.131Z,3.22
2022-08-08T19:28:59.658Z,4.80
2022-08-08T19:31:31.632Z,3.10
2022-08-08T19:34:29.687Z,2.63
2022-08-08T19:36:58.522Z,3.25
2022-08-08T19:39:34.849Z,5.15
2022-08-08T19:42:04.022Z,3.28
2022-08-08T19:44:42.821Z,4.43
2022-08-08T19:47:14.552Z,4.45
2022-08-08T19:49:43.364Z,7.38
2022-08-08T19:52:34.238Z,3.50
2022-08-08T19:55:05.088Z,2.88
2022-08-08T19:57:35.605Z,3.33
2022-08-08T20:00:10.998Z,4.95
2022-08-08T20:02:40.160Z,2.70
2022-08-08T20:05:12.066Z,3.90
2022-08-08T20:08:28.064Z,2.65
2022-08-08T20:10:31.169Z,2.88
2022-08-08T20:14:13.260Z,2.85
2022-08-08T20:15:59.790Z,2.10
2022-08-08T20:18:52.107Z,3.35
2022-08-08T20:21:18.532Z,2.97
2022-08-08T20:23:58.201Z,5.47
2022-08-08T20:26:29.752Z,2.53
2022-08-08T20:28:59.121Z,2.78
2022-08-08T20:31:47.253Z,2.08
2022-08-08T20:34:29.652Z,4.18
2022-08-08T20:36:59.975Z,3.65
2022-08-08T20:39:51.174Z,2.35
2022-08-08T20:42:28.689Z,3.42
2022-08-08T20:44:58.530Z,4.00
2022-08-08T20:47:28.853Z,2.22
2022-08-08T20:50:05.739Z,2.42
2022-08-08T20:52:34.119Z,3.30
2022-08-08T20:55:07.646Z,5.40
2022-08-08T20:57:47.674Z,4.07
2022-08-08T21:00:19.745Z,2.40
2022-08-08T21:02:52.593Z,1.98
2022-08-08T21:05:21.624Z,2.10
2022-08-08T21:08:33.955Z,5.80
2022-08-08T21:10:43.151Z,3.33
2022-08-08T21:13:13.272Z,2.83
2022-08-08T21:16:05.426Z,5.57
2022-08-08T21:18:31.174Z,3.50
2022-08-08T21:21:00.779Z,1.92
2022-08-08T21:23:59.190Z,4.13
2022-08-08T21:26:27.890Z,3.72
2022-08-08T21:29:02.214Z,2.55
2022-08-08T21:31:58.423Z,2.75
2022-08-08T21:34:22.082Z,4.88
2022-08-08T21:36:52.609Z,3.63
2022-08-08T21:39:41.458Z,3.13
2022-08-08T21:42:14.408Z,4.07
2022-08-08T21:44:58.194Z,2.60
2022-08-08T21:48:08.837Z,5.60
2022-08-08T21:50:18.888Z,4.35
2022-08-08T21:54:33.840Z,3.45
2022-08-08T21:56:19.494Z,3.65
2022-08-08T21:58:32.230Z,2.65
2022-08-08T22:01:05.957Z,4.22
2022-08-08T22:03:50.908Z,2.90
2022-08-08T22:06:31.543Z,2.25
2022-08-08T22:09:02.644Z,2.60
2022-08-08T22:11:51.415Z,2.25
2022-08-08T22:14:26.573Z,2.58
2022-08-08T22:16:56.211Z,2.97
2022-08-08T22:19:24.718Z,4.22
2022-08-08T22:21:57.490Z,3.30
2022-08-08T22:24:28.385Z,3.80
2022-08-08T22:27:01.278Z,3.88
2022-08-08T22:29:59.353Z,3.63
2022-08-08T22:32:20.994Z,4.38
2022-08-08T22:34:51.069Z,2.22
2022-08-08T22:37:49.106Z,2.95
2022-08-08T22:40:16.554Z,3.38
2022-08-08T22:42:47.529Z,4.63
2022-08-08T22:45:17.792Z,2.45
2022-08-08T22:47:48.751Z,3.13
2022-08-08T22:50:26.229Z,4.22
2022-08-08T22:53:22.324Z,3.42
2022-08-08T22:55:58.933Z,5.10
2022-08-08T22:58:31.106Z,5.18
2022-08-08T23:01:30.195Z,4.50
2022-08-08T23:03:53.633Z,4.63
2022-08-08T23:06:26.666Z,6.00
2022-08-08T23:09:02.505Z,2.70
2022-08-08T23:12:27.705Z,2.83
2022-08-08T23:14:26.557Z,3.42
2022-08-08T23:16:59.570Z,3.08
2022-08-08T23:19:30.758Z,3.55
2022-08-08T23:22:01.053Z,4.32
2022-08-08T23:24:36.723Z,3.85
2022-08-08T23:27:10.294Z,6.50
2022-08-08T23:29:38.935Z,5.63
2022-08-08T23:32:11.927Z,3.67
2022-08-08T23:34:49.689Z,4.63
2022-08-08T23:37:27.077Z,3.25
2022-08-08T23:40:21.898Z,2.58
2022-08-08T23:42:52.780Z,4.18
2022-08-08T23:49:03.603Z,4.78
2022-08-08T23:49:04.764Z,4.43
2022-08-08T23:51:02.207Z,3.58
2022-08-08T23:54:05.919Z,4.10
2022-08-08T23:56:31.848Z,4.13
2022-08-08T23:59:02.431Z,3.42
